»·PEaware :: UAL944 KJAC-KEGE

UAL944 :: KJAC-KEGE

FLIGHT INFORMATION

Flight Status: Arrived
Operator:
United Airlines
More flights by this operator :: More flights under this callsign
Pilot: Anonymous 15267 (15267)
Aircraft: DEHAVILLAND DASH 8 400
(DH8D)
More flights by this aircraft type
Origin: KJAC Jackson Hole
United States
Destination: KEGE Eagle Co Regl
United States
More flights between these airports :: More routes between these airports
Route: ALPIN2 KICNE OCS EKR RLG
File this flight plan on PilotEdge
Remarks: RMK / SIMBRIEF
Altitude:
(Current/Filed)
25,000ft
Speed:
(Current/Filed)
325kts
Departed: 14-May-19 09:58 AM
Arrived: 14-May-19 11:07 AM
Distance/Time
Traveled:
293nm/1:09
Distance/Time
To Go:
Arrived

Flight Plot

Page will automatically refresh every two minutes.

Flight plan parsing failed; only flown route is shown


Map Options




Map Legend


Flown Route
Filed Route
Departure Airport
Arrival Airport
Navaid (VOR, NDB)
Fix

Horizontal Profiles

Position Reports

Time Latitude Longitude Heading Altitude Ground
Speed
14-May-19 08:48 43.603098 -110.737281 109 6458ft 0kts
14-May-19 08:49 43.603098 -110.737281 109 6458ft 0kts
14-May-19 08:50 43.603098 -110.737281 109 6458ft 0kts
14-May-19 08:51 43.603098 -110.737281 109 6458ft 0kts
14-May-19 08:52 43.603098 -110.737281 109 6458ft 0kts
14-May-19 08:53 43.603098 -110.737281 109 6458ft 0kts
14-May-19 08:54 43.603098 -110.737281 109 6458ft 0kts
14-May-19 08:55 43.603098 -110.737281 109 6458ft 0kts
14-May-19 08:56 43.603098 -110.737281 109 6458ft 0kts
14-May-19 08:57 43.603098 -110.737281 109 6458ft 0kts
14-May-19 08:58 43.603098 -110.737281 109 6458ft 0kts
14-May-19 08:59 43.603098 -110.737281 109 6458ft 0kts
14-May-19 09:00 43.603098 -110.737281 109 6458ft 0kts
14-May-19 09:01 43.603098 -110.737281 109 6458ft 0kts
14-May-19 09:02 43.603098 -110.737281 109 6458ft 0kts
14-May-19 09:03 43.603098 -110.737281 109 6458ft 0kts
14-May-19 09:04 43.603098 -110.737281 109 6458ft 0kts
14-May-19 09:05 43.603098 -110.737281 109 6458ft 0kts
14-May-19 09:06 43.603098 -110.737281 109 6458ft 0kts
14-May-19 09:07 43.603098 -110.737281 109 6458ft 0kts
14-May-19 09:07 43.603098 -110.737281 109 6458ft 0kts
14-May-19 09:08 43.603098 -110.737281 109 6458ft 0kts
14-May-19 09:10 43.603098 -110.737281 109 6458ft 0kts
14-May-19 09:10 43.603098 -110.737281 109 6458ft 0kts
14-May-19 09:11 43.603098 -110.737281 109 6458ft 0kts
14-May-19 09:13 43.603098 -110.737281 109 6458ft 0kts
14-May-19 09:13 43.603098 -110.737281 109 6458ft 0kts
14-May-19 09:14 43.603098 -110.737281 109 6458ft 0kts
14-May-19 09:15 43.603098 -110.737281 109 6458ft 0kts
14-May-19 09:16 43.603098 -110.737281 109 6458ft 0kts
14-May-19 09:17 43.603098 -110.737281 109 6458ft 0kts
14-May-19 09:18 43.603098 -110.737281 109 6458ft 0kts
14-May-19 09:19 43.603098 -110.737281 109 6458ft 0kts
14-May-19 09:20 43.603098 -110.737281 109 6458ft 0kts
14-May-19 09:21 43.603098 -110.737281 109 6458ft 0kts
14-May-19 09:22 43.603098 -110.737281 109 6458ft 0kts
14-May-19 09:23 43.603098 -110.737281 109 6458ft 0kts
14-May-19 09:24 43.603098 -110.737281 109 6458ft 0kts
14-May-19 09:25 43.603098 -110.737281 109 6458ft 0kts
14-May-19 09:26 43.603098 -110.737281 109 6458ft 0kts
14-May-19 09:27 43.603098 -110.737281 109 6458ft 0kts
14-May-19 09:28 43.603098 -110.737281 109 6458ft 0kts
14-May-19 09:29 43.603098 -110.737281 109 6458ft 0kts
14-May-19 09:30 43.603098 -110.737281 109 6458ft 0kts
14-May-19 09:31 43.603098 -110.737281 109 6458ft 0kts
14-May-19 09:32 43.603098 -110.737281 109 6458ft 0kts
14-May-19 09:33 43.603098 -110.737281 109 6458ft 0kts
14-May-19 09:34 43.603098 -110.737281 109 6458ft 0kts
14-May-19 09:35 43.603098 -110.737281 109 6458ft 0kts
14-May-19 09:36 43.603098 -110.737281 109 6458ft 0kts
14-May-19 09:37 43.603098 -110.737281 109 6458ft 0kts
14-May-19 09:38 43.603098 -110.737281 109 6458ft 0kts
14-May-19 09:39 43.603098 -110.737281 109 6458ft 0kts
14-May-19 09:40 43.603098 -110.737281 109 6458ft 0kts
14-May-19 09:41 43.603098 -110.737281 109 6458ft 0kts
14-May-19 09:42 43.603098 -110.737281 109 6458ft 0kts
14-May-19 09:43 43.603098 -110.737281 109 6458ft 0kts
14-May-19 09:44 43.603098 -110.737281 109 6458ft 0kts
14-May-19 09:45 43.603098 -110.737281 109 6458ft 0kts
14-May-19 09:46 43.603195 -110.737943 82 6458ft 2kts
14-May-19 09:47 43.602932 -110.738295 19 6458ft 0kts
14-May-19 09:48 43.602932 -110.738295 19 6458ft 0kts
14-May-19 09:49 43.602932 -110.738295 19 6458ft 0kts
14-May-19 09:50 43.602932 -110.738295 19 6458ft 0kts
14-May-19 09:51 43.603257 -110.738141 18 6458ft 7kts
14-May-19 09:52 43.605767 -110.736936 17 6458ft 8kts
14-May-19 09:53 43.608693 -110.735500 17 6458ft 14kts
14-May-19 09:54 43.612550 -110.733621 19 6458ft 11kts
14-May-19 09:55 43.614823 -110.732624 344 6458ft 7kts
14-May-19 09:56 43.614637 -110.734219 197 6458ft 4kts
14-May-19 09:57 43.592308 -110.745425 204 6914ft 128kts
14-May-19 09:58 43.560564 -110.774467 216 8565ft 138kts
14-May-19 09:59 43.522448 -110.805283 204 9752ft 178kts
14-May-19 10:00 43.471029 -110.836296 205 11339ft 217kts
14-May-19 10:01 43.410204 -110.873194 205 12752ft 261kts
14-May-19 10:02 43.341662 -110.913153 207 14286ft 272kts
14-May-19 10:03 43.271375 -110.955976 207 15781ft 280kts
14-May-19 10:04 43.196225 -110.955689 146 17077ft 286kts
14-May-19 10:05 43.135144 -110.884163 136 18243ft 292kts
14-May-19 10:06 43.074629 -110.808145 135 19379ft 297kts
14-May-19 10:07 43.013127 -110.731502 135 20476ft 300kts
14-May-19 10:08 42.951051 -110.654312 135 21518ft 302kts
14-May-19 10:09 42.888666 -110.576965 135 22498ft 303kts
14-May-19 10:10 42.825796 -110.499198 134 23426ft 305kts
14-May-19 10:11 42.763698 -110.422726 133 24297ft 307kts
14-May-19 10:12 42.699933 -110.344715 132 25022ft 312kts
14-May-19 10:13 42.633559 -110.262613 132 25114ft 333kts
14-May-19 10:14 42.563012 -110.176428 133 25119ft 348kts
14-May-19 10:15 42.489919 -110.087501 133 25119ft 358kts
14-May-19 10:16 42.415648 -109.997464 134 25115ft 357kts
14-May-19 10:17 42.342168 -109.908356 134 25113ft 354kts
14-May-19 10:18 42.268897 -109.820275 134 25112ft 353kts
14-May-19 10:19 42.195858 -109.732563 134 25114ft 351kts
14-May-19 10:20 42.123043 -109.645272 134 25114ft 351kts
14-May-19 10:21 42.051134 -109.559442 134 25113ft 351kts
14-May-19 10:22 41.978475 -109.472766 135 25112ft 350kts
14-May-19 10:23 41.905788 -109.385969 136 25113ft 349kts
14-May-19 10:24 41.833061 -109.300353 136 25110ft 348kts
14-May-19 10:25 41.760458 -109.214638 137 25110ft 348kts
14-May-19 10:26 41.687581 -109.129040 138 25109ft 348kts
14-May-19 10:27 41.614942 -109.043982 138 25110ft 350kts
14-May-19 10:28 41.533622 -108.972695 154 25110ft 352kts
14-May-19 10:29 41.446997 -108.910845 152 25109ft 355kts
14-May-19 10:30 41.360493 -108.847184 153 25106ft 357kts
14-May-19 10:31 41.274986 -108.785035 153 25103ft 357kts
14-May-19 10:32 41.187960 -108.721791 153 25101ft 357kts
14-May-19 10:33 41.100815 -108.658705 154 25099ft 357kts
14-May-19 10:34 41.013850 -108.595909 154 25097ft 357kts
14-May-19 10:35 40.926535 -108.533049 155 25093ft 357kts
14-May-19 10:36 40.839417 -108.470587 155 25090ft 356kts
14-May-19 10:37 40.752559 -108.408431 156 25087ft 355kts
14-May-19 10:38 40.665890 -108.346357 156 25085ft 355kts
14-May-19 10:39 40.579366 -108.284947 157 25082ft 353kts
14-May-19 10:41 40.493165 -108.223860 158 25084ft 352kts
14-May-19 10:42 40.408730 -108.164237 158 25074ft 351kts
14-May-19 10:43 40.323204 -108.103966 158 25080ft 349kts
14-May-19 10:44 40.237632 -108.043842 159 25085ft 348kts
14-May-19 10:45 40.152420 -107.984277 159 25082ft 348kts
14-May-19 10:46 40.072952 -107.912680 126 25079ft 370kts
14-May-19 10:47 40.062015 -107.777135 91 25082ft 383kts
14-May-19 10:48 40.056793 -107.638625 96 25086ft 381kts
14-May-19 10:49 40.050519 -107.500523 94 25103ft 382kts
14-May-19 10:50 40.044946 -107.362019 95 25107ft 385kts
14-May-19 10:51 40.038912 -107.221582 95 23997ft 389kts
14-May-19 10:52 40.033115 -107.088730 95 22313ft 357kts
14-May-19 10:53 40.027209 -106.961645 95 20710ft 360kts
14-May-19 10:54 40.021137 -106.828670 94 18995ft 371kts
14-May-19 10:55 40.014842 -106.694531 94 17304ft 369kts
14-May-19 10:56 40.002338 -106.565612 124 15801ft 333kts
14-May-19 10:56 39.944169 -106.530498 186 15225ft 258kts
14-May-19 10:58 39.861224 -106.532551 184 14423ft 279kts
14-May-19 10:59 39.780348 -106.536050 195 13852ft 287kts
14-May-19 10:59 39.721753 -106.560438 202 12898ft 245kts
14-May-19 11:01 39.676022 -106.627332 270 12185ft 223kts
14-May-19 11:02 39.672317 -106.704353 263 10558ft 215kts
14-May-19 11:02 39.665094 -106.763646 258 9679ft 165kts
14-May-19 11:03 39.653972 -106.814905 257 8096ft 140kts
14-May-19 11:05 39.647658 -106.870762 264 7116ft 135kts
14-May-19 11:05 39.643417 -106.909869 264 6523ft 112kts
14-May-19 11:06 39.641174 -106.922582 146 6522ft 14kts
14-May-19 11:07 39.641392 -106.915691 155 6522ft 12kts
14-May-19 11:08 39.640546 -106.915451 171 6522ft 0kts
14-May-19 11:09 39.640546 -106.915451 171 6522ft 0kts
14-May-19 11:10 39.640546 -106.915451 171 6522ft 0kts
14-May-19 11:11 39.640546 -106.915451 171 6522ft 0kts

Navigation Log

Ident Type
Flight plan parsing failed, navigation log unavailable